Ventura — ZCDT2 — position and weather

sailwx.info

Track history (hours):
 
Tides and Currents Weather Stations Pressure Air Temp Water Temp Dewpoint Dewpoint Depression Visibility Wind Speed Wind Dir Waves Ship Positions

Ventura

Last reported at 2019-Mar-25 20:38 UTC. Time now 2019-Mar-26 00:07 UTC.
Position N 47°51' W 006°00'.

Length 289 m; draft 8.5 m.

Type: Passenger vessel. MMSI: 310562000.

Date/timePositionNaut miles runAvg speedWind from/ knotsBaromVisibWave heightAir tempDewpointWater temp
2019-Mar-25 20:38N 47°51' W 006°00'1219.2
2019-Mar-25 20:00N 48°00' W 005°48'2 6.7 040 / 161033.210.8 14.0 5.611.6
2019-Mar-25 19:38N 48°01' W 005°51'2710.6
2019-Mar-25 17:03N 48°25' W 005°31'010.1
2019-Mar-25 17:00N 48°26' W 005°30'510.2
2019-Mar-25 16:30N 48°30' W 005°26'510.5
2019-Mar-25 16:00N 48°34' W 005°21'7442.3
2019-Mar-25 16:00N 48°30' W 005°12'816.8 040 / 151033.7 5.4 15.0 6.911.5
2019-Mar-25 15:30N 48°38' W 005°15'611.5
2019-Mar-25 15:00N 48°42' W 005°09'611.9
2019-Mar-25 14:30N 48°46' W 005°03'612.5
2019-Mar-25 14:00N 48°50' W 004°55'713.1
2019-Mar-25 13:30N 48°54' W 004°47'713.2
2019-Mar-25 13:00N 48°58' W 004°39'4211.7
2019-Mar-25 09:28N 49°23' W 003°48'8 9.7
2019-Mar-25 08:41N 49°27' W 003°39'2 9.3
2019-Mar-25 08:30N 49°28' W 003°37'5 9.4
2019-Mar-25 08:00N 49°31' W 003°31'181.6
2019-Mar-25 08:00N 49°30' W 003°30'610.6 340 / 251032.710.8 12.0 5.611.0
2019-Mar-25 07:27N 49°35' W 003°26'510.7
2019-Mar-25 07:00N 49°39' W 003°23'510.5
2019-Mar-25 06:30N 49°44' W 003°19'611.4
2019-Mar-25 06:00N 49°48' W 003°12'612.2
2019-Mar-25 05:30N 49°52' W 003°05'713.1
2019-Mar-25 05:01N 49°56' W 002°58'713.3
2019-Mar-25 04:30N 49°58' W 002°48'713.8
2019-Mar-25 04:01N 50°00' W 002°38'5302.5
2019-Mar-25 04:00N 50°00' W 002°30'9 9.3 310 / 301031.910.8 10.0 6.810.7
2019-Mar-25 03:00N 50°04' W 002°17'913.0
2019-Mar-25 02:19N 50°07' W 002°04'1210.7
2019-Mar-25 01:12N 50°15' W 001°51'211.0
2019-Mar-25 01:00N 50°17' W 001°48'810.4
2019-Mar-25 00:13N 50°21' W 001°37'2 9.7
2019-Mar-24 23:58N 50°22' W 001°34'5 9.3
2019-Mar-24 23:27N 50°24' W 001°27'4 9.4
2019-Mar-24 23:01N 50°26' W 001°21'611.2
2019-Mar-24 22:31N 50°29' W 001°13'611.1
2019-Mar-24 22:01N 50°31' W 001°06'611.3
2019-Mar-24 21:31N 50°33' W 000°57'1 1.6
2019-Mar-24 21:01N 50°32' W 000°57'2 4.7
2019-Mar-24 20:31N 50°30' W 000°59'2 4.8
2019-Mar-24 20:01N 50°33' W 001°01'510.3
2019-Mar-24 19:31N 50°38' W 000°59'5 9.9
2019-Mar-24 19:00N 50°43' W 000°59'816.7
2019-Mar-24 18:30N 50°46' W 001°11'5 9.4
2019-Mar-24 18:00N 50°48' W 001°18'5 9.5
2019-Mar-24 17:30N 50°52' W 001°22'3 6.6
2019-Mar-24 17:00N 50°54' W 001°26'0 0.0
2019-Mar-24 16:29N 50°54' W 001°26'0 0.0
2019-Mar-24 15:59N 50°54' W 001°26'0 0.0
2019-Mar-24 15:29N 50°54' W 001°26'0 0.0
2019-Mar-24 14:59N 50°54' W 001°26'0 0.0
2019-Mar-24 14:29N 50°54' W 001°26'0 0.0
2019-Mar-24 13:56N 50°54' W 001°26'0 0.0
2019-Mar-24 13:29N 50°54' W 001°26'0 0.0
2019-Mar-24 12:59N 50°54' W 001°26'0 0.0
2019-Mar-24 12:29N 50°54' W 001°26'0 0.0
2019-Mar-24 11:59N 50°54' W 001°26'0 0.0
2019-Mar-24 11:26N 50°54' W 001°26'0 0.0
2019-Mar-24 10:59N 50°54' W 001°26'0 0.0
2019-Mar-24 10:29N 50°54' W 001°26'0 0.0
2019-Mar-24 09:59N 50°54' W 001°26'0 0.0
2019-Mar-24 09:29N 50°54' W 001°26'0 0.0
2019-Mar-24 08:59N 50°54' W 001°26'0 0.0
2019-Mar-24 08:29N 50°54' W 001°26'0 0.0
2019-Mar-24 07:59N 50°54' W 001°26'0 0.0
2019-Mar-24 07:29N 50°54' W 001°26'0 0.0
2019-Mar-24 06:59N 50°54' W 001°26'0 0.0
2019-Mar-24 06:29N 50°54' W 001°26'0 0.8
2019-Mar-24 06:01N 50°54' W 001°26'3 5.5
2019-Mar-24 05:30N 50°52' W 001°23'4 8.4
2019-Mar-24 05:00N 50°50' W 001°18'4 7.0
2019-Mar-24 04:30N 50°47' W 001°15'816.7
2019-Mar-24 04:00N 50°44' W 001°03'611.1
2019-Mar-24 03:30N 50°39' W 000°59'612.0
2019-Mar-24 03:00N 50°33' W 000°60'611.8
2019-Mar-24 02:30N 50°30' W 001°08'611.4
2019-Mar-24 02:00N 50°28' W 001°17'510.9
2019-Mar-24 01:30N 50°26' W 001°24'611.7
2019-Mar-24 01:00N 50°23' W 001°33'713.5
2019-Mar-24 00:30N 50°22' W 001°43'815.2
2019-Mar-24 00:00N 50°19' W 001°54'1216.2
2019-Mar-23 23:16N 50°15' W 002°11'515.4
2019-Mar-23 22:58N 50°12' W 002°17'714.5
2019-Mar-23 22:29N 50°05' W 002°17'814.3
2019-Mar-23 21:56N 49°57' W 002°20'717.3
2019-Mar-23 21:30N 49°55' W 002°31'917.4
2019-Mar-23 21:00N 49°53' W 002°44'918.2
2019-Mar-23 20:30N 49°47' W 002°55'918.7
2019-Mar-23 20:00N 49°41' W 003°06'917.8
2019-Mar-23 19:30N 49°37' W 003°18'917.3
2019-Mar-23 19:00N 49°32' W 003°29'917.2
2019-Mar-23 18:30N 49°27' W 003°40'917.2
2019-Mar-23 18:00N 49°21' W 003°50'917.1
2019-Mar-23 17:29N 49°16' W 004°01'1516.9
2019-Mar-23 16:37N 49°07' W 004°19'316.7
2019-Mar-23 16:27N 49°05' W 004°22'816.7
2019-Mar-23 15:58N 49°00' W 004°32'816.5
2019-Mar-23 15:30N 48°55' W 004°41'816.2
2019-Mar-23 15:00N 48°50' W 004°51'815.8
2019-Mar-23 14:30N 48°46' W 005°00'815.3
2019-Mar-23 14:00N 48°41' W 005°10'714.7
2019-Mar-23 13:30N 48°36' W 005°18'714.3
2019-Mar-23 13:00N 48°31' W 005°25'713.9
2019-Mar-23 12:30N 48°25' W 005°30'1313.8
2019-Mar-23 11:36N 48°14' W 005°40'1113.4
2019-Mar-23 10:48N 48°05' W 005°48'4616.2
2019-Mar-23 08:00N 47°24' W 006°18'628.8 090 / 151028.910.8 10.0 7.912.2
2019-Mar-23 07:48N 47°30' W 006°18'34915.7
2019-Mar-22 09:38N 42°14' W 009°48'215.4
2019-Mar-22 09:30N 42°12' W 009°48'3315.6
2019-Mar-22 07:24N 41°39' W 009°49'7815.9
2019-Mar-22 02:31N 40°22' W 009°52'016.3
2019-Mar-22 02:29N 40°21' W 009°52'816.5
2019-Mar-22 02:00N 40°13' W 009°52'916.4
2019-Mar-22 01:27N 40°04' W 009°52'716.3
2019-Mar-22 01:00N 39°57' W 009°52'816.2
2019-Mar-22 00:30N 39°49' W 009°51'1325.7
2019-Mar-22 00:00N 39°36' W 009°48'5291.4 070 / 121025.110.8 14.810.014.7
2019-Mar-21 23:58N 39°40' W 009°52'815.9
2019-Mar-21 23:28N 39°32' W 009°52'715.8
2019-Mar-21 23:00N 39°25' W 009°52'815.9
2019-Mar-21 22:31N 39°17' W 009°52'816.5
2019-Mar-21 22:00N 39°09' W 009°52'816.0
2019-Mar-21 21:31N 39°01' W 009°48'816.2
2019-Mar-21 21:01N 38°54' W 009°44'816.1
2019-Mar-21 20:30N 38°46' W 009°42'815.9
2019-Mar-21 20:01N 38°38' W 009°41'715.0
2019-Mar-21 19:31N 38°36' W 009°31'714.8
2019-Mar-21 19:00N 38°38' W 009°22'714.0
2019-Mar-21 18:30N 38°41' W 009°14'611.1
2019-Mar-21 18:00N 38°42' W 009°07'0 0.7
2019-Mar-21 17:27N 38°43' W 009°08'0 0.0
2019-Mar-21 16:57N 38°43' W 009°08'0 0.0
2019-Mar-21 16:27N 38°43' W 009°08'0 0.0
2019-Mar-21 15:57N 38°43' W 009°08'0 0.0
2019-Mar-21 15:27N 38°43' W 009°08'0 0.0
2019-Mar-21 14:57N 38°43' W 009°08'0 0.0
2019-Mar-21 14:27N 38°43' W 009°08'0 0.0
2019-Mar-21 13:57N 38°43' W 009°08'0 0.0
2019-Mar-21 13:27N 38°43' W 009°08'0 0.0
2019-Mar-21 12:57N 38°43' W 009°08'0 0.0
2019-Mar-21 12:27N 38°43' W 009°08'0 0.0
2019-Mar-21 11:57N 38°43' W 009°08'0 0.0
2019-Mar-21 11:27N 38°43' W 009°08'0 0.0
2019-Mar-21 10:57N 38°43' W 009°08'0 0.0
2019-Mar-21 10:27N 38°43' W 009°08'0 0.0
2019-Mar-21 09:57N 38°43' W 009°08'0 0.0
2019-Mar-21 09:27N 38°43' W 009°08'0 0.0
2019-Mar-21 08:57N 38°43' W 009°08'0 0.0
2019-Mar-21 08:27N 38°43' W 009°08'0 0.0
2019-Mar-21 07:57N 38°43' W 009°08'0 0.1
2019-Mar-21 07:30N 38°43' W 009°08'2 4.9
2019-Mar-21 07:01N 38°41' W 009°10'611.1
2019-Mar-21 06:31N 38°41' W 009°17'612.4
2019-Mar-21 06:00N 38°37' W 009°23'714.9
2019-Mar-21 05:31N 38°30' W 009°27'816.5
2019-Mar-21 05:01N 38°22' W 009°30'917.1
2019-Mar-21 04:31N 38°14' W 009°34'917.4
2019-Mar-21 04:01N 38°06' W 009°37'12692.7
2019-Mar-21 04:00N 37°54' W 009°36'510.0 060 / 111022.810.8 15.0 8.014.5
2019-Mar-21 03:31N 37°58' W 009°40'917.5
2019-Mar-21 03:01N 37°49' W 009°43'917.5
2019-Mar-21 02:31N 37°41' W 009°46'1117.5
2019-Mar-21 01:54N 37°31' W 009°52'717.9
2019-Mar-21 01:31N 37°24' W 009°55'51917.5
2019-Mar-19 19:56N 29°12' W 013°10'613.5
2019-Mar-19 19:30N 29°07' W 013°13'715.1
2019-Mar-19 19:00N 29°02' W 013°20'815.1
2019-Mar-19 18:30N 28°58' W 013°28'4 7.8
2019-Mar-19 18:00N 28°58' W 013°32'0 0.3
2019-Mar-19 17:29N 28°58' W 013°32'0 0.0
2019-Mar-19 16:59N 28°58' W 013°32'0 0.0
2019-Mar-19 16:23N 28°58' W 013°32'0 0.0
2019-Mar-19 15:47N 28°58' W 013°32'0 0.0
2019-Mar-19 15:23N 28°58' W 013°32'0 0.0
2019-Mar-19 14:47N 28°58' W 013°32'0 0.0
2019-Mar-19 14:29N 28°58' W 013°32'0 0.0
2019-Mar-19 13:53N 28°58' W 013°32'0 0.0
2019-Mar-19 13:29N 28°58' W 013°32'0 0.0
2019-Mar-19 12:41N 28°58' W 013°32'0 0.0
2019-Mar-19 12:17N 28°58' W 013°32'0 0.0
2019-Mar-19 11:59N 28°58' W 013°32'0 0.0
2019-Mar-19 11:29N 28°58' W 013°32'0 0.0
2019-Mar-19 10:35N 28°58' W 013°32'0 0.0
2019-Mar-19 10:05N 28°58' W 013°32'0 0.0
2019-Mar-19 09:47N 28°58' W 013°32'0 0.0
2019-Mar-19 09:17N 28°58' W 013°32'0 0.0
2019-Mar-19 08:29N 28°58' W 013°32'0 0.0
2019-Mar-19 07:38N 28°58' W 013°32'0 0.1
2019-Mar-19 07:29N 28°58' W 013°32'2 4.2
2019-Mar-19 07:00N 28°56' W 013°32'510.2
2019-Mar-19 06:30N 28°52' W 013°37'612.6
2019-Mar-19 06:00N 28°49' W 013°43'612.6
2019-Mar-19 05:30N 28°48' W 013°50'813.7
2019-Mar-19 04:57N 28°48' W 013°59'713.8
2019-Mar-19 04:27N 28°45' W 014°06'80 3.3
2019-Mar-18 04:00N 28°36' W 015°36'1211.3 020 / 271020.110.8 18.012.719.0
2019-Mar-18 02:56N 28°43' W 015°47'8011.6
2019-Mar-17 20:00N 28°36' W 017°18'60 3.8 060 / 191020.310.8 18.512.219.0
2019-Mar-17 04:00N 29°36' W 017°24'9115.2 010 / 141021.810.8 19.014.719.0
2019-Mar-16 22:00N 31°06' W 017°06'4221.2 030 / 131023.410.8 17.510.618.8
2019-Mar-16 20:00N 31°48' W 017°00'93 5.8 010 / 181022.410.8 19.512.418.0
2019-Mar-16 04:00N 33°06' W 016°00'   020 / 21022.210.8 18.012.718.0
Track history (hours):
 
Tides and Currents Weather Stations Pressure Air Temp Water Temp Dewpoint Dewpoint Depression Visibility Wind Speed Wind Dir Waves Ship Positions

Ventura

Last reported at 2019-Mar-25 20:38 UTC. Time now 2019-Mar-26 00:07 UTC.
Position N 47°51' W 006°00'.

Length 289 m; draft 8.5 m.

Type: Passenger vessel. MMSI: 310562000.

Date/timePositionNaut miles runAvg speedWind from/ knotsBaromVisibWave heightAir tempDewpointWater temp
2019-Mar-25 20:38N 47°51' W 006°00'1219.2
2019-Mar-25 20:00N 48°00' W 005°48'2 6.7 040 / 161033.210.8 14.0 5.611.6
2019-Mar-25 19:38N 48°01' W 005°51'2710.6
2019-Mar-25 17:03N 48°25' W 005°31'010.1
2019-Mar-25 17:00N 48°26' W 005°30'510.2
2019-Mar-25 16:30N 48°30' W 005°26'510.5
2019-Mar-25 16:00N 48°34' W 005°21'7442.3
2019-Mar-25 16:00N 48°30' W 005°12'816.8 040 / 151033.7 5.4 15.0 6.911.5
2019-Mar-25 15:30N 48°38' W 005°15'611.5
2019-Mar-25 15:00N 48°42' W 005°09'611.9
2019-Mar-25 14:30N 48°46' W 005°03'612.5
2019-Mar-25 14:00N 48°50' W 004°55'713.1
2019-Mar-25 13:30N 48°54' W 004°47'713.2
2019-Mar-25 13:00N 48°58' W 004°39'4211.7
2019-Mar-25 09:28N 49°23' W 003°48'8 9.7
2019-Mar-25 08:41N 49°27' W 003°39'2 9.3
2019-Mar-25 08:30N 49°28' W 003°37'5 9.4
2019-Mar-25 08:00N 49°31' W 003°31'181.6
2019-Mar-25 08:00N 49°30' W 003°30'610.6 340 / 251032.710.8 12.0 5.611.0
2019-Mar-25 07:27N 49°35' W 003°26'510.7
2019-Mar-25 07:00N 49°39' W 003°23'510.5
2019-Mar-25 06:30N 49°44' W 003°19'611.4
2019-Mar-25 06:00N 49°48' W 003°12'612.2
2019-Mar-25 05:30N 49°52' W 003°05'713.1
2019-Mar-25 05:01N 49°56' W 002°58'713.3
2019-Mar-25 04:30N 49°58' W 002°48'713.8
2019-Mar-25 04:01N 50°00' W 002°38'5302.5
2019-Mar-25 04:00N 50°00' W 002°30'9 9.3 310 / 301031.910.8 10.0 6.810.7
2019-Mar-25 03:00N 50°04' W 002°17'913.0
2019-Mar-25 02:19N 50°07' W 002°04'1210.7
2019-Mar-25 01:12N 50°15' W 001°51'211.0
2019-Mar-25 01:00N 50°17' W 001°48'810.4
2019-Mar-25 00:13N 50°21' W 001°37'2 9.7
2019-Mar-24 23:58N 50°22' W 001°34'5 9.3
2019-Mar-24 23:27N 50°24' W 001°27'4 9.4
2019-Mar-24 23:01N 50°26' W 001°21'611.2
2019-Mar-24 22:31N 50°29' W 001°13'611.1
2019-Mar-24 22:01N 50°31' W 001°06'611.3
2019-Mar-24 21:31N 50°33' W 000°57'1 1.6
2019-Mar-24 21:01N 50°32' W 000°57'2 4.7
2019-Mar-24 20:31N 50°30' W 000°59'2 4.8
2019-Mar-24 20:01N 50°33' W 001°01'510.3
2019-Mar-24 19:31N 50°38' W 000°59'5 9.9
2019-Mar-24 19:00N 50°43' W 000°59'816.7
2019-Mar-24 18:30N 50°46' W 001°11'5 9.4
2019-Mar-24 18:00N 50°48' W 001°18'5 9.5
2019-Mar-24 17:30N 50°52' W 001°22'3 6.6
2019-Mar-24 17:00N 50°54' W 001°26'0 0.0
2019-Mar-24 16:29N 50°54' W 001°26'0 0.0
2019-Mar-24 15:59N 50°54' W 001°26'0 0.0
2019-Mar-24 15:29N 50°54' W 001°26'0 0.0
2019-Mar-24 14:59N 50°54' W 001°26'0 0.0
2019-Mar-24 14:29N 50°54' W 001°26'0 0.0
2019-Mar-24 13:56N 50°54' W 001°26'0 0.0
2019-Mar-24 13:29N 50°54' W 001°26'0 0.0
2019-Mar-24 12:59N 50°54' W 001°26'0 0.0
2019-Mar-24 12:29N 50°54' W 001°26'0 0.0
2019-Mar-24 11:59N 50°54' W 001°26'0 0.0
2019-Mar-24 11:26N 50°54' W 001°26'0 0.0
2019-Mar-24 10:59N 50°54' W 001°26'0 0.0
2019-Mar-24 10:29N 50°54' W 001°26'0 0.0
2019-Mar-24 09:59N 50°54' W 001°26'0 0.0
2019-Mar-24 09:29N 50°54' W 001°26'0 0.0
2019-Mar-24 08:59N 50°54' W 001°26'0 0.0
2019-Mar-24 08:29N 50°54' W 001°26'0 0.0
2019-Mar-24 07:59N 50°54' W 001°26'0 0.0
2019-Mar-24 07:29N 50°54' W 001°26'0 0.0
2019-Mar-24 06:59N 50°54' W 001°26'0 0.0
2019-Mar-24 06:29N 50°54' W 001°26'0 0.8
2019-Mar-24 06:01N 50°54' W 001°26'3 5.5
2019-Mar-24 05:30N 50°52' W 001°23'4 8.4
2019-Mar-24 05:00N 50°50' W 001°18'4 7.0
2019-Mar-24 04:30N 50°47' W 001°15'816.7
2019-Mar-24 04:00N 50°44' W 001°03'611.1
2019-Mar-24 03:30N 50°39' W 000°59'612.0
2019-Mar-24 03:00N 50°33' W 000°60'611.8
2019-Mar-24 02:30N 50°30' W 001°08'611.4
2019-Mar-24 02:00N 50°28' W 001°17'510.9
2019-Mar-24 01:30N 50°26' W 001°24'611.7
2019-Mar-24 01:00N 50°23' W 001°33'713.5
2019-Mar-24 00:30N 50°22' W 001°43'815.2
2019-Mar-24 00:00N 50°19' W 001°54'1216.2
2019-Mar-23 23:16N 50°15' W 002°11'515.4
2019-Mar-23 22:58N 50°12' W 002°17'714.5
2019-Mar-23 22:29N 50°05' W 002°17'814.3
2019-Mar-23 21:56N 49°57' W 002°20'717.3
2019-Mar-23 21:30N 49°55' W 002°31'917.4
2019-Mar-23 21:00N 49°53' W 002°44'918.2
2019-Mar-23 20:30N 49°47' W 002°55'918.7
2019-Mar-23 20:00N 49°41' W 003°06'917.8
2019-Mar-23 19:30N 49°37' W 003°18'917.3
2019-Mar-23 19:00N 49°32' W 003°29'917.2
2019-Mar-23 18:30N 49°27' W 003°40'917.2
2019-Mar-23 18:00N 49°21' W 003°50'917.1
2019-Mar-23 17:29N 49°16' W 004°01'1516.9
2019-Mar-23 16:37N 49°07' W 004°19'316.7
2019-Mar-23 16:27N 49°05' W 004°22'816.7
2019-Mar-23 15:58N 49°00' W 004°32'816.5
2019-Mar-23 15:30N 48°55' W 004°41'816.2
2019-Mar-23 15:00N 48°50' W 004°51'815.8
2019-Mar-23 14:30N 48°46' W 005°00'815.3
2019-Mar-23 14:00N 48°41' W 005°10'714.7
2019-Mar-23 13:30N 48°36' W 005°18'714.3
2019-Mar-23 13:00N 48°31' W 005°25'713.9
2019-Mar-23 12:30N 48°25' W 005°30'1313.8
2019-Mar-23 11:36N 48°14' W 005°40'1113.4
2019-Mar-23 10:48N 48°05' W 005°48'4616.2
2019-Mar-23 08:00N 47°24' W 006°18'628.8 090 / 151028.910.8 10.0 7.912.2
2019-Mar-23 07:48N 47°30' W 006°18'34915.7
2019-Mar-22 09:38N 42°14' W 009°48'215.4
2019-Mar-22 09:30N 42°12' W 009°48'3315.6
2019-Mar-22 07:24N 41°39' W 009°49'7815.9
2019-Mar-22 02:31N 40°22' W 009°52'016.3
2019-Mar-22 02:29N 40°21' W 009°52'816.5
2019-Mar-22 02:00N 40°13' W 009°52'916.4
2019-Mar-22 01:27N 40°04' W 009°52'716.3
2019-Mar-22 01:00N 39°57' W 009°52'816.2
2019-Mar-22 00:30N 39°49' W 009°51'1325.7
2019-Mar-22 00:00N 39°36' W 009°48'5291.4 070 / 121025.110.8 14.810.014.7
2019-Mar-21 23:58N 39°40' W 009°52'815.9
2019-Mar-21 23:28N 39°32' W 009°52'715.8
2019-Mar-21 23:00N 39°25' W 009°52'815.9
2019-Mar-21 22:31N 39°17' W 009°52'816.5
2019-Mar-21 22:00N 39°09' W 009°52'816.0
2019-Mar-21 21:31N 39°01' W 009°48'816.2
2019-Mar-21 21:01N 38°54' W 009°44'816.1
2019-Mar-21 20:30N 38°46' W 009°42'815.9
2019-Mar-21 20:01N 38°38' W 009°41'715.0
2019-Mar-21 19:31N 38°36' W 009°31'714.8
2019-Mar-21 19:00N 38°38' W 009°22'714.0
2019-Mar-21 18:30N 38°41' W 009°14'611.1
2019-Mar-21 18:00N 38°42' W 009°07'0 0.7
2019-Mar-21 17:27N 38°43' W 009°08'0 0.0
2019-Mar-21 16:57N 38°43' W 009°08'0 0.0
2019-Mar-21 16:27N 38°43' W 009°08'0 0.0
2019-Mar-21 15:57N 38°43' W 009°08'0 0.0
2019-Mar-21 15:27N 38°43' W 009°08'0 0.0
2019-Mar-21 14:57N 38°43' W 009°08'0 0.0
2019-Mar-21 14:27N 38°43' W 009°08'0 0.0
2019-Mar-21 13:57N 38°43' W 009°08'0 0.0
2019-Mar-21 13:27N 38°43' W 009°08'0 0.0
2019-Mar-21 12:57N 38°43' W 009°08'0 0.0
2019-Mar-21 12:27N 38°43' W 009°08'0 0.0
2019-Mar-21 11:57N 38°43' W 009°08'0 0.0
2019-Mar-21 11:27N 38°43' W 009°08'0 0.0
2019-Mar-21 10:57N 38°43' W 009°08'0 0.0
2019-Mar-21 10:27N 38°43' W 009°08'0 0.0
2019-Mar-21 09:57N 38°43' W 009°08'0 0.0
2019-Mar-21 09:27N 38°43' W 009°08'0 0.0
2019-Mar-21 08:57N 38°43' W 009°08'0 0.0
2019-Mar-21 08:27N 38°43' W 009°08'0 0.0
2019-Mar-21 07:57N 38°43' W 009°08'0 0.1
2019-Mar-21 07:30N 38°43' W 009°08'2 4.9
2019-Mar-21 07:01N 38°41' W 009°10'611.1
2019-Mar-21 06:31N 38°41' W 009°17'612.4
2019-Mar-21 06:00N 38°37' W 009°23'714.9
2019-Mar-21 05:31N 38°30' W 009°27'816.5
2019-Mar-21 05:01N 38°22' W 009°30'917.1
2019-Mar-21 04:31N 38°14' W 009°34'917.4
2019-Mar-21 04:01N 38°06' W 009°37'12692.7
2019-Mar-21 04:00N 37°54' W 009°36'510.0 060 / 111022.810.8 15.0 8.014.5
2019-Mar-21 03:31N 37°58' W 009°40'917.5
2019-Mar-21 03:01N 37°49' W 009°43'917.5
2019-Mar-21 02:31N 37°41' W 009°46'1117.5
2019-Mar-21 01:54N 37°31' W 009°52'717.9
2019-Mar-21 01:31N 37°24' W 009°55'51917.5
2019-Mar-19 19:56N 29°12' W 013°10'613.5
2019-Mar-19 19:30N 29°07' W 013°13'715.1
2019-Mar-19 19:00N 29°02' W 013°20'815.1
2019-Mar-19 18:30N 28°58' W 013°28'4 7.8
2019-Mar-19 18:00N 28°58' W 013°32'0 0.3
2019-Mar-19 17:29N 28°58' W 013°32'0 0.0
2019-Mar-19 16:59N 28°58' W 013°32'0 0.0
2019-Mar-19 16:23N 28°58' W 013°32'0 0.0
2019-Mar-19 15:47N 28°58' W 013°32'0 0.0
2019-Mar-19 15:23N 28°58' W 013°32'0 0.0
2019-Mar-19 14:47N 28°58' W 013°32'0 0.0
2019-Mar-19 14:29N 28°58' W 013°32'0 0.0
2019-Mar-19 13:53N 28°58' W 013°32'0 0.0
2019-Mar-19 13:29N 28°58' W 013°32'0 0.0
2019-Mar-19 12:41N 28°58' W 013°32'0 0.0
2019-Mar-19 12:17N 28°58' W 013°32'0 0.0
2019-Mar-19 11:59N 28°58' W 013°32'0 0.0
2019-Mar-19 11:29N 28°58' W 013°32'0 0.0
2019-Mar-19 10:35N 28°58' W 013°32'0 0.0
2019-Mar-19 10:05N 28°58' W 013°32'0 0.0
2019-Mar-19 09:47N 28°58' W 013°32'0 0.0
2019-Mar-19 09:17N 28°58' W 013°32'0 0.0
2019-Mar-19 08:29N 28°58' W 013°32'0 0.0
2019-Mar-19 07:38N 28°58' W 013°32'0 0.1
2019-Mar-19 07:29N 28°58' W 013°32'2 4.2
2019-Mar-19 07:00N 28°56' W 013°32'510.2
2019-Mar-19 06:30N 28°52' W 013°37'612.6
2019-Mar-19 06:00N 28°49' W 013°43'612.6
2019-Mar-19 05:30N 28°48' W 013°50'813.7
2019-Mar-19 04:57N 28°48' W 013°59'713.8
2019-Mar-19 04:27N 28°45' W 014°06'80 3.3
2019-Mar-18 04:00N 28°36' W 015°36'1211.3 020 / 271020.110.8 18.012.719.0
2019-Mar-18 02:56N 28°43' W 015°47'8011.6
2019-Mar-17 20:00N 28°36' W 017°18'60 3.8 060 / 191020.310.8 18.512.219.0
2019-Mar-17 04:00N 29°36' W 017°24'9115.2 010 / 141021.810.8 19.014.719.0
2019-Mar-16 22:00N 31°06' W 017°06'4221.2 030 / 131023.410.8 17.510.618.8
2019-Mar-16 20:00N 31°48' W 017°00'93 5.8 010 / 181022.410.8 19.512.418.0
2019-Mar-16 04:00N 33°06' W 016°00'   020 / 21022.210.8 18.012.718.0

Dump ship's entire track history